createdAt,value
2019-03-03T00:01:19.811Z,5.67
2019-03-03T00:03:49.431Z,6.27
2019-03-03T00:06:19.036Z,4.93
2019-03-03T00:08:48.677Z,4.20
2019-03-03T00:11:18.306Z,5.20
2019-03-03T00:13:47.874Z,5.20
2019-03-03T00:16:17.496Z,4.10
2019-03-03T00:18:47.074Z,5.23
2019-03-03T00:21:16.676Z,4.20
2019-03-03T00:23:46.327Z,4.60
2019-03-03T00:26:15.935Z,4.23
2019-03-03T00:28:45.477Z,5.97
2019-03-03T00:31:17.587Z,5.63
2019-03-03T00:33:47.306Z,5.27
2019-03-03T00:36:17.114Z,6.83
2019-03-03T00:39:08.608Z,4.93
2019-03-03T00:42:09.440Z,4.27
2019-03-03T00:45:07.045Z,5.00
2019-03-03T00:48:04.405Z,5.13
2019-03-03T00:50:51.449Z,4.00
2019-03-03T00:53:37.641Z,4.83
2019-03-03T00:56:13.283Z,4.40
2019-03-03T00:58:52.204Z,5.17
2019-03-03T01:01:27.662Z,4.77
2019-03-03T01:04:19.282Z,5.57
2019-03-03T01:07:06.742Z,4.90
2019-03-03T01:09:50.100Z,4.60
2019-03-03T01:12:37.527Z,4.10
2019-03-03T01:15:29.709Z,4.77
2019-03-03T01:18:10.975Z,5.70
2019-03-03T01:20:51.738Z,4.43
2019-03-03T01:23:43.378Z,5.73
2019-03-03T01:26:12.971Z,4.40
2019-03-03T01:28:42.559Z,4.57
2019-03-03T01:31:12.193Z,3.83
2019-03-03T01:33:41.814Z,4.27
2019-03-03T01:36:11.395Z,5.50
2019-03-03T01:38:41.001Z,4.00
2019-03-03T01:41:10.634Z,5.30
2019-03-03T01:43:40.255Z,4.77
2019-03-03T01:46:09.857Z,4.73
2019-03-03T01:48:39.458Z,4.00
2019-03-03T01:51:09.065Z,4.13
2019-03-03T01:53:38.673Z,4.53
2019-03-03T01:56:08.263Z,3.80
2019-03-03T01:58:37.854Z,4.17
2019-03-03T02:01:07.562Z,3.70
2019-03-03T02:03:37.257Z,4.33
2019-03-03T02:06:07.334Z,4.43
2019-03-03T02:08:36.983Z,4.33
2019-03-03T02:11:06.580Z,3.60
2019-03-03T02:13:36.160Z,4.00
2019-03-03T02:16:07.088Z,3.97
2019-03-03T02:18:36.708Z,4.07
2019-03-03T02:21:06.375Z,5.07
2019-03-03T02:23:35.961Z,4.37
2019-03-03T02:26:05.551Z,4.57
2019-03-03T02:28:35.167Z,4.40
2019-03-03T02:31:04.806Z,4.27
2019-03-03T02:33:34.383Z,5.00
2019-03-03T02:36:03.946Z,4.80
2019-03-03T02:38:33.576Z,3.70
2019-03-03T02:41:03.217Z,3.97
2019-03-03T02:43:38.730Z,4.07
2019-03-03T02:46:08.405Z,4.20
2019-03-03T02:48:37.996Z,4.03
2019-03-03T02:51:07.555Z,4.00
2019-03-03T02:53:37.154Z,5.13
2019-03-03T02:56:06.738Z,5.23
2019-03-03T02:58:36.363Z,5.23
2019-03-03T03:01:29.151Z,4.40
2019-03-03T03:03:58.792Z,5.30
2019-03-03T03:06:35.073Z,4.53
2019-03-03T03:09:26.802Z,4.73
2019-03-03T03:12:15.319Z,5.30
2019-03-03T03:14:56.875Z,5.03
2019-03-03T03:18:00.445Z,4.43
2019-03-03T03:20:49.970Z,4.27
2019-03-03T03:23:35.738Z,5.83
2019-03-03T03:26:27.461Z,6.47
2019-03-03T03:29:10.975Z,4.07
2019-03-03T03:32:00.891Z,4.77
2019-03-03T03:34:40.922Z,3.70
2019-03-03T03:37:18.947Z,3.87
2019-03-03T03:40:05.963Z,3.67
2019-03-03T03:42:45.927Z,4.10
2019-03-03T03:45:33.351Z,5.50
2019-03-03T03:48:20.680Z,6.37
2019-03-03T03:51:15.156Z,3.60
2019-03-03T03:54:06.896Z,4.10
2019-03-03T03:57:07.636Z,3.63
2019-03-03T03:59:58.905Z,2.90
2019-03-03T04:02:52.783Z,3.27
2019-03-03T04:05:33.374Z,3.10
2019-03-03T04:08:30.810Z,3.97
2019-03-03T04:11:12.420Z,3.53
2019-03-03T04:14:10.274Z,4.30
2019-03-03T04:17:04.894Z,3.73
2019-03-03T04:19:47.069Z,8.00
2019-03-03T04:22:32.492Z,5.40
2019-03-03T04:25:24.011Z,4.00
2019-03-03T04:28:15.266Z,4.70
2019-03-03T04:30:53.969Z,4.07
2019-03-03T04:33:32.726Z,6.20
2019-03-03T04:36:36.327Z,5.27
2019-03-03T04:39:21.090Z,6.80
2019-03-03T04:42:09.574Z,5.20
2019-03-03T04:45:01.126Z,4.53
2019-03-03T04:47:40.568Z,6.50
2019-03-03T04:50:29.176Z,4.60
2019-03-03T04:53:24.765Z,4.27
2019-03-03T04:56:15.787Z,4.40
2019-03-03T04:58:57.790Z,4.43
2019-03-03T05:01:58.408Z,5.20
2019-03-03T05:04:39.541Z,4.77
2019-03-03T05:07:34.306Z,5.77
2019-03-03T05:10:34.755Z,4.63
2019-03-03T05:13:13.442Z,5.60
2019-03-03T05:16:00.916Z,5.37
2019-03-03T05:18:52.773Z,6.33
2019-03-03T05:21:22.403Z,4.90
2019-03-03T05:23:51.980Z,4.63
2019-03-03T05:26:21.589Z,5.53
2019-03-03T05:28:51.218Z,5.57
2019-03-03T05:31:20.827Z,5.60
2019-03-03T05:33:50.466Z,5.37
2019-03-03T05:36:20.053Z,6.20
2019-03-03T05:38:49.674Z,6.70
2019-03-03T05:41:19.306Z,7.30
2019-03-03T05:43:48.907Z,5.13
2019-03-03T05:46:18.528Z,5.20
2019-03-03T05:48:48.161Z,3.67
2019-03-03T05:51:17.763Z,3.57
2019-03-03T05:53:47.426Z,5.63
2019-03-03T05:56:18.943Z,5.83
2019-03-03T05:58:48.354Z,7.43
2019-03-03T06:01:18.018Z,7.63
2019-03-03T06:03:47.608Z,6.40
2019-03-03T06:06:17.199Z,5.73
2019-03-03T06:08:46.807Z,5.87
2019-03-03T06:11:16.470Z,6.03
2019-03-03T06:13:46.307Z,5.40
2019-03-03T06:16:15.917Z,5.80
2019-03-03T06:18:45.938Z,5.90
2019-03-03T06:21:15.558Z,5.83
2019-03-03T06:23:45.155Z,6.03
2019-03-03T06:26:14.851Z,6.80
2019-03-03T06:28:44.423Z,7.93
2019-03-03T06:31:13.990Z,8.70
2019-03-03T06:33:43.663Z,9.33
2019-03-03T06:36:13.235Z,8.07
2019-03-03T06:38:42.829Z,9.80
2019-03-03T06:41:12.435Z,8.40
2019-03-03T06:43:42.019Z,7.77
2019-03-03T06:46:11.634Z,6.37
2019-03-03T06:48:41.248Z,6.37
2019-03-03T06:51:10.883Z,5.60
2019-03-03T06:53:40.446Z,5.23
2019-03-03T06:56:10.079Z,6.27
2019-03-03T06:58:39.720Z,6.10
2019-03-03T07:01:09.318Z,5.87
2019-03-03T07:03:38.970Z,6.03
2019-03-03T07:06:09.272Z,6.10
2019-03-03T07:08:38.953Z,5.93
2019-03-03T07:11:10.028Z,5.23
2019-03-03T07:13:39.817Z,5.87
2019-03-03T07:16:09.479Z,5.60
2019-03-03T07:18:39.118Z,5.57
2019-03-03T07:21:08.790Z,5.87
2019-03-03T07:23:38.402Z,5.70
2019-03-03T07:26:12.821Z,5.37
2019-03-03T07:28:42.439Z,5.60
2019-03-03T07:31:12.176Z,5.67
2019-03-03T07:33:45.091Z,5.40
2019-03-03T07:36:14.753Z,5.60
2019-03-03T07:38:44.679Z,4.57
2019-03-03T07:41:14.615Z,5.07
2019-03-03T07:43:44.253Z,5.10
2019-03-03T07:46:14.072Z,4.40
2019-03-03T07:48:43.683Z,5.17
2019-03-03T07:51:13.262Z,16.20
2019-03-03T07:53:42.884Z,11.57
2019-03-03T07:56:13.289Z,5.70
2019-03-03T07:58:43.202Z,6.27
2019-03-03T08:01:13.538Z,5.20
2019-03-03T08:03:47.015Z,5.03
2019-03-03T08:06:16.914Z,3.83
2019-03-03T08:08:46.647Z,6.07
2019-03-03T08:11:16.764Z,4.20
2019-03-03T08:13:46.456Z,3.70
2019-03-03T08:16:16.123Z,3.77
2019-03-03T08:18:45.832Z,3.07
2019-03-03T08:21:15.768Z,3.53
2019-03-03T08:23:45.393Z,4.33
2019-03-03T08:26:15.043Z,6.17
2019-03-03T08:28:44.699Z,4.73
2019-03-03T08:31:14.617Z,11.20
2019-03-03T08:33:44.503Z,5.97
2019-03-03T08:36:14.582Z,5.90
2019-03-03T08:38:44.570Z,4.50
2019-03-03T08:41:14.399Z,4.03
2019-03-03T08:43:53.072Z,3.53
2019-03-03T08:46:45.499Z,2.90
2019-03-03T08:49:29.037Z,2.90
2019-03-03T08:52:16.315Z,2.87
2019-03-03T08:55:07.004Z,2.93
2019-03-03T08:57:47.646Z,2.30
2019-03-03T09:00:35.101Z,5.20
2019-03-03T09:03:26.621Z,3.10
2019-03-03T09:06:18.348Z,2.30
2019-03-03T09:09:10.131Z,2.67
2019-03-03T09:12:08.068Z,8.40
2019-03-03T09:15:05.822Z,10.33
2019-03-03T09:17:43.609Z,3.60
2019-03-03T09:20:32.586Z,4.07
2019-03-03T09:23:22.127Z,3.03
2019-03-03T09:26:01.897Z,3.07
2019-03-03T09:28:49.412Z,3.60
2019-03-03T09:31:38.861Z,3.40
2019-03-03T09:34:36.867Z,3.50
2019-03-03T09:37:24.680Z,3.33
2019-03-03T09:40:20.120Z,2.67
2019-03-03T09:43:05.745Z,2.67
2019-03-03T09:45:55.273Z,2.87
2019-03-03T09:48:59.143Z,2.70
2019-03-03T09:52:00.176Z,2.63
2019-03-03T09:54:50.397Z,2.53
2019-03-03T09:57:38.043Z,2.40
2019-03-03T10:00:41.232Z,2.40
2019-03-03T10:03:27.963Z,6.03
2019-03-03T10:06:23.011Z,2.50
2019-03-03T10:09:17.530Z,2.47
2019-03-03T10:12:05.326Z,2.23
2019-03-03T10:15:03.210Z,1.90
2019-03-03T10:17:45.061Z,2.20
2019-03-03T10:20:33.192Z,2.53
2019-03-03T10:23:24.552Z,2.47
2019-03-03T10:26:08.663Z,2.40
2019-03-03T10:28:55.487Z,28.67
2019-03-03T10:31:50.345Z,7.63
2019-03-03T10:34:45.271Z,5.03
2019-03-03T10:37:22.278Z,3.63
2019-03-03T10:40:28.978Z,2.47
2019-03-03T10:43:06.359Z,3.20
2019-03-03T10:45:52.667Z,1.80
2019-03-03T10:48:39.417Z,2.20
2019-03-03T10:51:26.663Z,2.10
2019-03-03T10:54:21.623Z,2.30
2019-03-03T10:57:01.155Z,2.40
2019-03-03T10:59:44.077Z,1.90
2019-03-03T11:02:28.798Z,2.87
2019-03-03T11:05:16.085Z,2.40
2019-03-03T11:08:20.061Z,2.93
2019-03-03T11:11:08.607Z,3.23
2019-03-03T11:14:09.882Z,2.43
2019-03-03T11:17:16.790Z,2.63
2019-03-03T11:20:02.399Z,2.90
2019-03-03T11:22:39.979Z,2.50
2019-03-03T11:25:27.241Z,3.93
2019-03-03T11:28:24.839Z,3.50
2019-03-03T11:31:28.498Z,2.80
2019-03-03T11:34:22.787Z,2.53
2019-03-03T11:37:10.578Z,2.30
2019-03-03T11:40:03.040Z,2.90
2019-03-03T11:42:44.050Z,2.67
2019-03-03T11:45:22.031Z,3.50
2019-03-03T11:48:19.918Z,2.37
2019-03-03T11:50:57.659Z,2.87
2019-03-03T11:53:34.266Z,2.77
2019-03-03T11:56:28.618Z,2.07
2019-03-03T11:59:32.617Z,2.20
2019-03-03T12:02:24.052Z,3.77
2019-03-03T12:05:21.500Z,2.83
2019-03-03T12:08:15.810Z,2.17
2019-03-03T12:11:08.379Z,2.00
2019-03-03T12:13:55.513Z,2.20
2019-03-03T12:16:42.778Z,1.90
2019-03-03T12:19:28.541Z,2.27
2019-03-03T12:22:19.838Z,2.70
2019-03-03T12:25:17.454Z,1.80
2019-03-03T12:27:57.044Z,3.20
2019-03-03T12:30:51.353Z,2.23
2019-03-03T12:33:27.615Z,2.20
2019-03-03T12:36:15.126Z,1.87
2019-03-03T12:39:06.663Z,2.03
2019-03-03T12:41:54.052Z,2.00
2019-03-03T12:44:32.663Z,1.80
2019-03-03T12:47:10.231Z,1.80
2019-03-03T12:50:04.593Z,2.00
2019-03-03T12:52:46.054Z,1.90
2019-03-03T12:55:40.941Z,1.90
2019-03-03T12:58:47.682Z,2.03
2019-03-03T13:01:34.826Z,1.90
2019-03-03T13:04:38.996Z,1.80
2019-03-03T13:07:36.672Z,1.80
2019-03-03T13:10:25.771Z,1.63
2019-03-03T13:13:29.698Z,2.50
2019-03-03T13:16:05.411Z,2.03
2019-03-03T13:18:52.513Z,3.93
2019-03-03T13:21:35.059Z,1.90
2019-03-03T13:24:19.826Z,1.60
2019-03-03T13:26:55.526Z,1.90
2019-03-03T13:29:42.773Z,1.80
2019-03-03T13:32:18.001Z,2.00
2019-03-03T13:35:04.319Z,1.70
2019-03-03T13:37:50.537Z,2.40
2019-03-03T13:40:27.491Z,1.67
2019-03-03T13:43:00.160Z,1.83
2019-03-03T13:45:32.476Z,2.27
2019-03-03T13:48:02.103Z,1.80
2019-03-03T13:50:31.924Z,2.20
2019-03-03T13:53:01.661Z,1.87
2019-03-03T13:55:31.215Z,1.80
2019-03-03T13:58:00.936Z,2.20
2019-03-03T14:00:30.604Z,2.00
2019-03-03T14:03:00.173Z,3.43
2019-03-03T14:05:29.943Z,2.47
2019-03-03T14:07:59.539Z,1.90
2019-03-03T14:10:29.163Z,1.70
2019-03-03T14:12:58.752Z,2.90
2019-03-03T14:15:28.525Z,1.60
2019-03-03T14:17:58.231Z,1.77
2019-03-03T14:20:27.850Z,1.80
2019-03-03T14:22:57.509Z,1.73
2019-03-03T14:25:27.228Z,1.87
2019-03-03T14:27:56.874Z,1.70
2019-03-03T14:30:27.342Z,2.23
2019-03-03T14:32:57.072Z,2.77
2019-03-03T14:35:26.696Z,2.00
2019-03-03T14:37:56.342Z,1.83
2019-03-03T14:40:25.950Z,1.90
2019-03-03T14:42:55.585Z,2.37
2019-03-03T14:45:25.467Z,2.77
2019-03-03T14:47:55.071Z,1.70
2019-03-03T14:50:24.700Z,1.87
2019-03-03T14:52:54.399Z,1.60
2019-03-03T14:55:24.212Z,2.93
2019-03-03T14:57:53.924Z,2.10
2019-03-03T15:00:27.321Z,2.30
2019-03-03T15:02:57.736Z,2.00
2019-03-03T15:05:27.338Z,1.73
2019-03-03T15:07:57.139Z,1.80
2019-03-03T15:10:26.850Z,2.40
2019-03-03T15:12:56.631Z,2.27
2019-03-03T15:15:26.617Z,2.20
2019-03-03T15:17:56.238Z,5.40
2019-03-03T15:20:26.062Z,3.33
2019-03-03T15:22:55.680Z,2.07
2019-03-03T15:25:25.332Z,2.53
2019-03-03T15:27:54.929Z,4.00
2019-03-03T15:30:24.897Z,6.00
2019-03-03T15:32:54.591Z,4.23
2019-03-03T15:35:24.267Z,2.87
2019-03-03T15:37:54.030Z,2.40
2019-03-03T15:40:23.831Z,2.30
2019-03-03T15:42:53.579Z,2.53
2019-03-03T15:45:23.513Z,2.97
2019-03-03T15:47:53.111Z,2.97
2019-03-03T15:50:23.652Z,6.30
2019-03-03T15:52:53.378Z,5.97
2019-03-03T15:55:23.043Z,3.03
2019-03-03T15:57:52.722Z,2.83
2019-03-03T16:00:24.663Z,3.20
2019-03-03T16:02:54.269Z,4.53
2019-03-03T16:05:23.892Z,4.20
2019-03-03T16:07:53.632Z,3.43
2019-03-03T16:10:23.299Z,3.60
2019-03-03T16:12:53.038Z,4.10
2019-03-03T16:15:22.986Z,4.50
2019-03-03T16:17:52.729Z,4.60
2019-03-03T16:20:22.456Z,5.83
2019-03-03T16:22:52.554Z,4.57
2019-03-03T16:25:22.786Z,5.13
2019-03-03T16:27:52.527Z,4.60
2019-03-03T16:30:22.221Z,4.80
2019-03-03T16:32:52.041Z,8.13
2019-03-03T16:35:21.685Z,7.90
2019-03-03T16:37:51.367Z,8.47
2019-03-03T16:40:22.045Z,8.37
2019-03-03T16:42:52.102Z,9.40
2019-03-03T16:45:22.301Z,9.33
2019-03-03T16:47:52.219Z,12.60
2019-03-03T16:50:21.960Z,7.60
2019-03-03T16:52:51.730Z,4.33
2019-03-03T16:55:22.054Z,6.80
2019-03-03T16:57:51.668Z,5.40
2019-03-03T17:00:22.000Z,5.17
2019-03-03T17:02:51.749Z,4.57
2019-03-03T17:05:22.053Z,4.87
2019-03-03T17:07:51.790Z,16.60
2019-03-03T17:10:21.420Z,17.27
2019-03-03T17:12:51.140Z,8.13
2019-03-03T17:15:21.967Z,6.37
2019-03-03T17:17:51.910Z,4.70
2019-03-03T17:20:21.643Z,7.27
2019-03-03T17:22:52.072Z,6.83
2019-03-03T17:25:22.732Z,6.50
2019-03-03T17:27:52.366Z,8.53
2019-03-03T17:30:22.774Z,10.57
2019-03-03T17:32:52.416Z,7.60
2019-03-03T17:35:22.034Z,14.17
2019-03-03T17:37:51.723Z,6.87
2019-03-03T17:40:21.487Z,7.93
2019-03-03T17:42:51.134Z,13.90
2019-03-03T17:45:21.260Z,14.40
2019-03-03T17:47:50.980Z,8.53
2019-03-03T17:50:21.439Z,9.27
2019-03-03T17:52:51.067Z,9.00
2019-03-03T17:55:20.807Z,15.07
2019-03-03T17:57:50.494Z,11.80
2019-03-03T18:00:25.445Z,6.40
2019-03-03T18:02:55.174Z,12.20
2019-03-03T18:05:24.836Z,8.00
2019-03-03T18:07:54.595Z,7.97
2019-03-03T18:10:24.352Z,9.27
2019-03-03T18:12:54.079Z,132.97
2019-03-03T18:15:23.758Z,128.87
2019-03-03T18:17:53.510Z,22.13
2019-03-03T18:20:23.147Z,8.97
2019-03-03T18:22:52.813Z,8.23
2019-03-03T18:25:22.533Z,8.50
2019-03-03T18:27:52.172Z,10.67
2019-03-03T18:30:22.773Z,9.57
2019-03-03T18:32:52.403Z,33.60
2019-03-03T18:35:22.234Z,38.43
2019-03-03T18:37:52.043Z,14.10
2019-03-03T18:40:21.766Z,8.50
2019-03-03T18:42:51.509Z,8.90
2019-03-03T18:45:21.272Z,8.57
2019-03-03T18:47:51.199Z,8.47
2019-03-03T18:50:20.873Z,12.07
2019-03-03T18:52:50.529Z,9.87
2019-03-03T18:55:20.126Z,10.70
2019-03-03T18:57:49.758Z,14.37
2019-03-03T19:00:23.887Z,15.00
2019-03-03T19:02:53.861Z,12.23
2019-03-03T19:05:23.627Z,11.10
2019-03-03T19:07:53.254Z,10.53
2019-03-03T19:10:25.215Z,10.57
2019-03-03T19:12:55.156Z,8.53
2019-03-03T19:15:24.986Z,8.00
2019-03-03T19:17:54.735Z,9.10
2019-03-03T19:20:24.380Z,9.30
2019-03-03T19:22:54.053Z,9.97
2019-03-03T19:25:23.696Z,8.67
2019-03-03T19:27:53.337Z,9.50
2019-03-03T19:30:24.596Z,11.37
2019-03-03T19:33:05.080Z,10.60
2019-03-03T19:35:34.765Z,8.43
2019-03-03T19:38:04.449Z,7.20
2019-03-03T19:40:34.119Z,9.30
2019-03-03T19:43:03.792Z,10.00
2019-03-03T19:45:34.163Z,11.13
2019-03-03T19:48:03.891Z,41.60
2019-03-03T19:50:33.586Z,22.03
2019-03-03T19:53:03.211Z,10.47
2019-03-03T19:55:32.960Z,11.17
2019-03-03T19:58:02.610Z,12.03
2019-03-03T20:00:36.708Z,12.60
2019-03-03T20:03:05.040Z,12.00
2019-03-03T20:05:34.640Z,10.83
2019-03-03T20:08:04.690Z,12.03
2019-03-03T20:10:34.490Z,13.10
2019-03-03T20:13:04.222Z,11.37
2019-03-03T20:15:34.243Z,11.20
2019-03-03T20:18:04.340Z,9.60
2019-03-03T20:20:34.092Z,9.47
2019-03-03T20:23:03.695Z,8.43
2019-03-03T20:25:33.642Z,8.97
2019-03-03T20:28:03.237Z,7.93
2019-03-03T20:30:32.889Z,10.27
2019-03-03T20:33:02.502Z,8.77
2019-03-03T20:35:32.161Z,8.77
2019-03-03T20:38:01.721Z,7.60
2019-03-03T20:40:31.350Z,8.47
2019-03-03T20:43:01.001Z,8.33
2019-03-03T20:45:30.816Z,9.67
2019-03-03T20:48:00.403Z,9.10
2019-03-03T20:50:30.050Z,7.43
2019-03-03T20:52:59.714Z,11.50
2019-03-03T20:55:29.339Z,11.37
2019-03-03T20:57:59.020Z,10.20
2019-03-03T21:00:28.812Z,9.60
2019-03-03T21:02:58.654Z,10.10
2019-03-03T21:05:28.298Z,11.60
2019-03-03T21:07:58.031Z,10.97
2019-03-03T21:10:27.618Z,9.77
2019-03-03T21:12:57.362Z,10.67
2019-03-03T21:15:26.999Z,9.80
2019-03-03T21:17:56.644Z,8.50
2019-03-03T21:20:26.303Z,8.53
2019-03-03T21:22:55.938Z,10.87
2019-03-03T21:25:25.581Z,9.07
2019-03-03T21:27:55.217Z,8.53
2019-03-03T21:30:25.115Z,8.30
2019-03-03T21:32:54.928Z,7.73
2019-03-03T21:35:24.583Z,15.93
2019-03-03T21:37:54.210Z,11.13
2019-03-03T21:40:23.814Z,8.67
2019-03-03T21:42:53.733Z,10.10
2019-03-03T21:45:23.481Z,9.33
2019-03-03T21:47:53.162Z,7.90
2019-03-03T21:50:23.316Z,7.10
2019-03-03T21:52:52.913Z,8.30
2019-03-03T21:55:22.545Z,8.70
2019-03-03T21:57:52.244Z,9.57
2019-03-03T22:00:32.803Z,10.70
2019-03-03T22:03:02.557Z,8.30
2019-03-03T22:05:32.206Z,7.80
2019-03-03T22:08:01.787Z,8.20
2019-03-03T22:10:32.292Z,7.53
2019-03-03T22:13:12.558Z,8.90
2019-03-03T22:15:42.269Z,7.87
2019-03-03T22:18:11.863Z,8.63
2019-03-03T22:20:41.479Z,9.37
2019-03-03T22:23:11.167Z,8.47
2019-03-03T22:25:40.776Z,9.83
2019-03-03T22:28:10.390Z,8.53
2019-03-03T22:30:40.050Z,9.17
2019-03-03T22:33:09.664Z,8.47
2019-03-03T22:35:39.300Z,9.53
2019-03-03T22:38:08.982Z,8.70
2019-03-03T22:40:38.522Z,12.23
2019-03-03T22:43:08.136Z,7.87
2019-03-03T22:45:37.806Z,9.97
2019-03-03T22:48:07.409Z,9.87
2019-03-03T22:50:37.032Z,7.40
2019-03-03T22:53:06.648Z,9.03
2019-03-03T22:55:37.663Z,8.33
2019-03-03T22:58:07.301Z,11.77
2019-03-03T23:00:48.294Z,8.37
2019-03-03T23:03:27.450Z,8.13
2019-03-03T23:06:21.598Z,9.10
2019-03-03T23:09:29.842Z,7.30
2019-03-03T23:12:39.163Z,9.90
2019-03-03T23:15:31.832Z,7.93
2019-03-03T23:18:34.680Z,8.00
2019-03-03T23:21:49.975Z,9.30
2019-03-03T23:24:43.128Z,9.80
2019-03-03T23:27:12.750Z,7.83
2019-03-03T23:29:42.350Z,12.33
2019-03-03T23:32:11.999Z,9.73
2019-03-03T23:34:41.597Z,9.03
2019-03-03T23:37:11.164Z,7.97
2019-03-03T23:39:40.774Z,10.13
2019-03-03T23:42:10.356Z,7.37
2019-03-03T23:44:39.969Z,8.53
2019-03-03T23:47:09.633Z,8.33
2019-03-03T23:49:39.220Z,8.00
2019-03-03T23:52:08.830Z,12.07
2019-03-03T23:54:38.534Z,12.23
2019-03-03T23:57:08.156Z,9.23
2019-03-03T23:59:37.843Z,10.30
